Time;durP1;ratioP1;P1;durP2;ratioP2;P2;SDS_P1;SDS_P2;PMS_P1;PMS_P2;Temp;Humidity;BMP_temperature;BMP_pressure;BME280_temperature;BME280_humidity;BME280_pressure;Samples;Min_cycle;Max_cycle;Signal;HPM_P1;HPM_P2
2023/01/23 00:00:36;;;;;;;74.90;44.70;;;;;;;-0.31;100.00;102298.59;5016874;28;20032;-81
2023/01/23 00:03:02;;;;;;;71.30;41.40;;;;;;;-0.19;100.00;102309.22;5051325;28;20039;-82
2023/01/23 00:05:28;;;;;;;85.35;45.53;;;;;;;-0.64;100.00;102230.59;5018999;28;20740;-81
2023/01/23 00:07:53;;;;;;;76.85;45.72;;;;;;;-0.24;100.00;102295.31;5031011;28;20467;-81
2023/01/23 00:10:18;;;;;;;84.47;46.15;;;;;;;-0.20;100.00;102306.56;5025958;28;20846;-81
2023/01/23 00:12:45;;;;;;;84.88;45.55;;;;;;;-0.21;100.00;102310.00;5039894;28;20021;-82
2023/01/23 00:15:14;;;;;;;92.30;46.72;;;;;;;-0.17;100.00;102312.69;5030176;28;20041;-81
2023/01/23 00:17:40;;;;;;;71.75;43.05;;;;;;;-0.31;100.00;102282.22;5012819;28;20079;-83
2023/01/23 00:20:08;;;;;;;90.82;49.00;;;;;;;-0.23;100.00;102302.22;5042240;28;20025;-83
2023/01/23 00:22:33;;;;;;;70.82;43.58;;;;;;;-0.25;100.00;102298.72;5018181;28;20586;-82
2023/01/23 00:24:59;;;;;;;71.88;42.53;;;;;;;-0.23;100.00;102296.16;5012381;28;20032;-83
2023/01/23 00:27:24;;;;;;;87.55;46.55;;;;;;;-0.19;100.00;102309.22;5031014;28;20029;-82
2023/01/23 00:29:51;;;;;;;76.47;46.15;;;;;;;-0.22;100.00;102303.09;5010908;28;20978;-82
2023/01/23 00:32:17;;;;;;;77.75;45.78;;;;;;;-0.21;100.00;102305.72;5042012;28;20187;-82
2023/01/23 00:34:42;;;;;;;84.47;48.25;;;;;;;-0.22;100.00;102309.13;5028020;28;21021;-83
2023/01/23 00:37:08;;;;;;;106.85;50.10;;;;;;;-0.21;100.00;102316.06;5010605;28;20048;-82
2023/01/23 00:39:34;;;;;;;81.53;50.17;;;;;;;-0.23;100.00;102316.84;5032379;28;20029;-83
2023/01/23 00:41:59;;;;;;;118.43;53.72;;;;;;;-0.15;100.00;102331.69;5029506;28;20125;-83
2023/01/23 00:44:24;;;;;;;83.55;46.17;;;;;;;-0.25;100.00;102318.50;5009188;28;20821;-81
2023/01/23 00:46:50;;;;;;;88.78;47.08;;;;;;;-0.20;100.00;102325.53;5017343;28;20044;-81
2023/01/23 00:49:16;;;;;;;90.40;50.75;;;;;;;-0.20;100.00;102312.63;5006327;28;20025;-81
2023/01/23 00:51:42;;;;;;;91.10;46.33;;;;;;;-0.14;100.00;102328.28;5026440;28;20040;-81
2023/01/23 00:54:08;;;;;;;115.65;50.78;;;;;;;-0.24;100.00;102317.69;5009165;28;20032;-81
2023/01/23 00:56:33;;;;;;;110.72;51.22;;;;;;;-0.19;100.00;102324.69;5020694;28;20103;-82
2023/01/23 00:58:59;;;;;;;89.20;49.60;;;;;;;-0.22;100.00;102316.88;5006732;28;20029;-82
2023/01/23 01:01:24;;;;;;;87.40;47.78;;;;;;;-0.19;100.00;102327.28;5019940;28;20032;-80
2023/01/23 01:03:50;;;;;;;78.00;43.72;;;;;;;-0.13;100.00;102335.19;5020708;28;20121;-81
2023/01/23 01:06:16;;;;;;;108.00;49.00;;;;;;;-0.11;100.00;102332.66;5008632;28;20147;-81
2023/01/23 01:08:41;;;;;;;102.72;52.30;;;;;;;-0.13;100.00;102336.88;5027726;28;20029;-82
2023/01/23 01:11:07;;;;;;;74.40;46.35;;;;;;;-0.13;100.00;102335.19;5051803;28;20017;-84
2023/01/23 01:13:33;;;;;;;78.75;45.97;;;;;;;-0.13;100.00;102349.81;5032395;28;20040;-84
2023/01/23 01:16:01;;;;;;;86.05;49.42;;;;;;;-0.13;100.00;102350.69;5012642;28;20036;-84
2023/01/23 01:18:27;;;;;;;92.93;45.88;;;;;;;-0.71;100.00;102244.22;5036399;28;20025;-83
2023/01/23 01:20:53;;;;;;;93.15;48.95;;;;;;;-0.19;100.00;102329.00;5026697;28;20033;-84
2023/01/23 01:23:19;;;;;;;119.38;55.53;;;;;;;-0.15;100.00;102342.03;5029697;28;20076;-84
2023/01/23 01:25:45;;;;;;;77.18;47.38;;;;;;;-0.09;100.00;102352.50;5027490;28;20033;-84
2023/01/23 01:28:11;;;;;;;77.68;43.95;;;;;;;-0.14;100.00;102338.63;5023920;28;20832;-81
2023/01/23 01:30:36;;;;;;;108.63;50.13;;;;;;;-0.13;100.00;102345.50;5004371;28;20091;-83
2023/01/23 01:33:02;;;;;;;80.20;46.72;;;;;;;-0.27;100.00;102318.47;5025880;28;20831;-82
2023/01/23 01:35:27;;;;;;;78.28;45.67;;;;;;;-0.15;100.00;102335.97;5027473;28;20554;-80
2023/01/23 01:37:52;;;;;;;89.50;49.20;;;;;;;-0.23;100.00;102325.47;5012215;28;20032;-84
2023/01/23 01:40:21;;;;;;;93.43;47.75;;;;;;;-0.09;100.00;102351.63;5031190;28;20028;-82
2023/01/23 01:42:57;;;;;;;100.03;51.22;;;;;;;-0.59;100.00;102265.16;5030341;28;20040;-80
2023/01/23 01:45:59;;;;;;;88.90;48.75;;;;;;;-0.08;100.00;102348.22;5029628;28;20044;-82
2023/01/23 01:48:32;;;;;;;87.50;48.55;;;;;;;-0.07;100.00;102353.41;5020373;28;20499;-83
2023/01/23 01:50:59;;;;;;;82.38;49.40;;;;;;;-0.08;100.00;102348.22;5007734;28;20073;-81
2023/01/23 01:53:26;;;;;;;108.63;51.53;;;;;;;-0.16;100.00;102337.69;5004435;28;20040;-79
2023/01/23 01:55:52;;;;;;;80.43;48.22;;;;;;;-0.07;100.00;102350.81;4991318;28;20060;-79
2023/01/23 01:58:18;;;;;;;82.78;46.80;;;;;;;-0.21;100.00;102330.69;5000705;28;20550;-78
2023/01/23 02:00:43;;;;;;;84.57;49.38;;;;;;;-0.09;100.00;102344.75;5016375;28;20028;-79
2023/01/23 02:03:08;;;;;;;118.15;55.55;;;;;;;-0.13;100.00;102327.44;5019342;28;20397;-80
2023/01/23 02:05:37;;;;;;;125.30;57.45;;;;;;;-0.11;100.00;102319.72;5022286;28;20048;-78
2023/01/23 02:08:08;;;;;;;73.15;45.10;;;;;;;-0.06;100.00;102331.03;5025359;28;20108;-80
2023/01/23 02:10:35;;;;;;;98.15;50.70;;;;;;;-0.05;100.00;102332.78;5038865;28;20104;-81
2023/01/23 02:13:32;;;;;;;104.80;51.78;;;;;;;-0.05;100.00;102331.09;5022031;28;20037;-80
2023/01/23 02:16:00;;;;;;;79.20;46.22;;;;;;;-0.08;100.00;102328.44;5017039;28;20385;-79
2023/01/23 02:18:27;;;;;;;89.32;47.38;;;;;;;-0.07;100.00;102327.56;5001892;28;20033;-78
2023/01/23 02:20:54;;;;;;;88.72;48.80;;;;;;;-0.06;100.00;102331.91;5007688;28;20037;-79
2023/01/23 02:23:26;;;;;;;95.50;47.40;;;;;;;-0.08;100.00;102323.25;5015627;28;20033;-79
2023/01/23 02:25:58;;;;;;;92.40;50.60;;;;;;;-0.06;100.00;102320.69;5018912;28;20160;-79
2023/01/23 02:28:39;;;;;;;88.35;47.42;;;;;;;-0.05;100.00;102327.63;4999466;28;20969;-78
2023/01/23 02:31:05;;;;;;;67.50;44.67;;;;;;;-0.11;100.00;102312.84;5020303;28;20119;-78
2023/01/23 02:33:30;;;;;;;72.95;46.70;;;;;;;-0.09;100.00;102313.75;5022991;28;20037;-78
2023/01/23 02:35:57;;;;;;;80.45;48.40;;;;;;;-0.03;100.00;102321.66;5025500;28;20033;-78
2023/01/23 02:38:25;;;;;;;91.80;49.25;;;;;;;-0.09;100.00;102310.28;5005492;28;20032;-77
2023/01/23 02:40:52;;;;;;;92.47;48.45;;;;;;;-0.05;100.00;102328.50;5008940;28;20168;-78
2023/01/23 02:43:20;;;;;;;101.80;50.65;;;;;;;-0.04;100.00;102330.25;5008127;28;20035;-77
2023/01/23 02:45:46;;;;;;;96.63;51.08;;;;;;;-0.01;100.00;102332.91;5024116;28;20033;-78
2023/01/23 02:48:11;;;;;;;97.18;51.47;;;;;;;-0.08;100.00;102323.25;5025392;28;20099;-77
2023/01/23 02:50:37;;;;;;;104.90;52.95;;;;;;;0.00;100.00;102333.78;5023295;28;20033;-78
2023/01/23 02:53:02;;;;;;;108.50;53.10;;;;;;;-0.06;100.00;102323.28;5025173;28;20287;-78
2023/01/23 02:55:32;;;;;;;90.07;49.38;;;;;;;-0.10;100.00;102316.28;5005696;28;20543;-77
2023/01/23 03:00:14;;;;;;;79.47;47.63;;;;;;;-0.05;100.00;102320.75;5007042;28;20032;-77
2023/01/23 03:00:44;;;;;;;77.70;46.22;;;;;;;0.02;100.00;102339.84;5018242;28;20033;-78
2023/01/23 03:03:09;;;;;;;113.07;54.53;;;;;;;-0.07;100.00;102319.81;5022720;28;20025;-77
2023/01/23 03:05:35;;;;;;;90.78;51.40;;;;;;;0.00;100.00;102336.38;5024664;28;20565;-77
2023/01/23 03:08:00;;;;;;;82.28;47.20;;;;;;;-0.02;100.00;102326.00;5027300;28;20064;-77
2023/01/23 03:10:26;;;;;;;118.70;59.33;;;;;;;-0.47;100.00;102254.28;5026922;28;20084;-77
2023/01/23 03:12:51;;;;;;;122.78;58.30;;;;;;;-0.12;100.00;102318.84;5023156;28;20036;-78
2023/01/23 03:15:17;;;;;;;98.22;51.15;;;;;;;-0.03;100.00;102333.69;5021839;28;20061;-78
2023/01/23 03:17:42;;;;;;;83.45;50.88;;;;;;;0.02;100.00;102338.97;5022476;28;20855;-77
2023/01/23 03:20:08;;;;;;;110.28;56.97;;;;;;;0.02;100.00;102338.97;5021141;28;20026;-77
2023/01/23 03:22:34;;;;;;;86.32;52.20;;;;;;;-0.19;100.00;102298.88;4998413;28;20037;-77
2023/01/23 03:25:00;;;;;;;94.05;53.08;;;;;;;-0.03;100.00;102331.97;5023389;28;20507;-78
2023/01/23 03:27:25;;;;;;;101.97;55.90;;;;;;;-0.02;100.00;102338.03;5029252;28;20060;-78
2023/01/23 03:32:37;;;;;;;92.93;50.80;;;;;;;-0.05;100.00;102318.16;5024960;28;20079;-78
2023/01/23 03:35:03;;;;;;;99.60;52.67;;;;;;;0.01;100.00;102335.50;5024842;28;20041;-77
2023/01/23 03:37:29;;;;;;;93.07;50.25;;;;;;;0.02;100.00;102333.81;5007472;28;20033;-78
2023/01/23 03:42:38;;;;;;;90.68;53.35;;;;;;;0.04;100.00;102332.13;5024065;28;20044;-78
2023/01/23 03:45:05;;;;;;;94.40;51.75;;;;;;;-0.05;100.00;102315.59;5021548;28;20032;-77
2023/01/23 03:47:30;;;;;;;97.70;56.45;;;;;;;0.00;100.00;102326.88;5014181;28;20858;-77
2023/01/23 03:49:56;;;;;;;127.28;57.55;;;;;;;0.06;100.00;102335.63;5022150;28;20033;-78
2023/01/23 03:52:21;;;;;;;119.00;55.55;;;;;;;0.06;100.00;102335.63;5022599;28;20087;-78
2023/01/23 03:54:47;;;;;;;118.63;58.75;;;;;;;0.03;100.00;102331.28;5020952;28;20036;-77
2023/01/23 03:57:12;;;;;;;86.07;51.63;;;;;;;0.01;100.00;102330.34;5015477;28;20041;-78
2023/01/23 03:59:38;;;;;;;102.10;55.50;;;;;;;0.04;100.00;102326.94;5015891;28;20029;-78
2023/01/23 04:02:06;;;;;;;90.50;53.72;;;;;;;0.08;100.00;102333.94;5022364;28;20168;-78
2023/01/23 04:04:32;;;;;;;104.40;53.65;;;;;;;0.03;100.00;102315.78;5005421;28;20140;-78
2023/01/23 04:06:58;;;;;;;89.47;50.63;;;;;;;0.10;100.00;102324.53;5014148;28;20029;-77
2023/01/23 04:09:26;;;;;;;107.43;56.15;;;;;;;0.03;100.00;102314.91;5023462;28;20017;-78
2023/01/23 04:11:53;;;;;;;87.43;51.05;;;;;;;0.05;100.00;102316.66;5004188;28;20870;-77
2023/01/23 04:14:18;;;;;;;87.47;52.83;;;;;;;0.03;100.00;102315.78;5019508;28;20036;-77
2023/01/23 04:16:44;;;;;;;90.03;51.20;;;;;;;0.04;100.00;102311.44;5011974;28;20034;-77
2023/01/23 04:19:09;;;;;;;112.15;57.70;;;;;;;0.06;100.00;102317.53;5020425;28;20036;-77
2023/01/23 04:21:35;;;;;;;122.60;58.58;;;;;;;0.08;100.00;102336.53;5021730;28;20966;-77
2023/01/23 04:24:00;;;;;;;94.18;54.33;;;;;;;0.07;100.00;102334.81;5022042;28;20037;-79
2023/01/23 04:26:25;;;;;;;108.88;56.28;;;;;;;0.07;100.00;102340.81;5021334;28;20868;-78
2023/01/23 04:28:51;;;;;;;98.70;54.67;;;;;;;0.04;100.00;102334.69;5016838;28;20028;-79
2023/01/23 04:31:16;;;;;;;97.95;51.25;;;;;;;0.09;100.00;102335.69;5017541;28;20025;-76
2023/01/23 04:33:42;;;;;;;97.40;58.35;;;;;;;-0.06;100.00;102311.25;5019541;28;20127;-76
2023/01/23 04:36:07;;;;;;;97.43;55.53;;;;;;;0.11;100.00;102344.34;5016265;28;20829;-77
2023/01/23 04:38:33;;;;;;;98.88;55.85;;;;;;;0.05;100.00;102328.72;5020691;28;20041;-78
2023/01/23 04:40:59;;;;;;;105.18;58.20;;;;;;;0.10;100.00;102347.78;5015470;28;20145;-79
2023/01/23 04:43:24;;;;;;;115.38;56.03;;;;;;;0.09;100.00;102340.88;5016366;28;20490;-78
2023/01/23 04:45:51;;;;;;;100.88;54.20;;;;;;;0.02;100.00;102333.81;5030218;28;20026;-77
2023/01/23 04:48:17;;;;;;;85.60;53.33;;;;;;;-0.23;100.00;102302.22;5018417;28;20033;-76
2023/01/23 04:50:42;;;;;;;96.78;54.15;;;;;;;0.08;100.00;102349.44;5018604;28;20059;-78
2023/01/23 04:53:08;;;;;;;102.70;56.03;;;;;;;0.02;100.00;102336.38;5021912;28;20021;-77
2023/01/23 04:55:33;;;;;;;84.53;52.90;;;;;;;0.13;100.00;102368.53;5024625;28;20547;-77
2023/01/23 04:57:59;;;;;;;98.50;52.60;;;;;;;0.02;100.00;102344.16;5024595;28;20032;-77
2023/01/23 05:00:25;;;;;;;100.32;55.67;;;;;;;0.06;100.00;102356.31;5023452;28;20044;-78
2023/01/23 05:02:51;;;;;;;89.30;54.10;;;;;;;-0.08;100.00;102343.94;5020447;28;20894;-78
2023/01/23 05:05:19;;;;;;;95.43;54.45;;;;;;;-0.01;100.00;102356.16;5019400;28;20033;-77
2023/01/23 05:07:45;;;;;;;103.50;55.08;;;;;;;0.05;100.00;102360.59;5018034;28;20029;-77
2023/01/23 05:10:10;;;;;;;101.05;55.63;;;;;;;0.06;100.00;102364.06;5002688;28;20060;-78
2023/01/23 05:12:36;;;;;;;97.18;53.88;;;;;;;0.13;100.00;102378.88;5019933;28;20774;-77
2023/01/23 05:15:01;;;;;;;88.03;55.67;;;;;;;0.09;100.00;102377.03;5018029;28;20033;-77
2023/01/23 05:17:26;;;;;;;83.88;52.30;;;;;;;-0.06;100.00;102338.78;4998596;28;20036;-77
2023/01/23 05:19:52;;;;;;;80.10;53.20;;;;;;;-0.12;100.00;102328.31;5016665;28;20538;-76
2023/01/23 05:22:17;;;;;;;81.47;51.20;;;;;;;0.03;100.00;102340.72;5018020;28;20131;-76
2023/01/23 05:24:43;;;;;;;87.57;50.97;;;;;;;0.04;100.00;102345.03;5020118;28;20916;-76
2023/01/23 05:27:09;;;;;;;79.82;51.83;;;;;;;0.10;100.00;102358.13;5019631;28;20016;-77
2023/01/23 05:29:35;;;;;;;75.75;50.25;;;;;;;-0.51;100.00;102266.25;5004347;28;20068;-76
2023/01/23 05:32:00;;;;;;;94.55;53.53;;;;;;;0.03;100.00;102361.41;5020594;28;20775;-75
2023/01/23 05:34:26;;;;;;;83.88;49.60;;;;;;;0.11;100.00;102371.06;5002782;28;20141;-75
2023/01/23 05:36:51;;;;;;;89.78;52.47;;;;;;;0.08;100.00;102364.94;5020316;28;20037;-75
2023/01/23 05:39:16;;;;;;;89.72;50.85;;;;;;;0.07;100.00;102358.06;5015695;28;20026;-75
2023/01/23 05:41:42;;;;;;;92.57;50.78;;;;;;;0.12;100.00;102364.19;5017078;28;20855;-75
2023/01/23 05:44:07;;;;;;;81.85;48.47;;;;;;;0.02;100.00;102354.47;5016757;28;20098;-76
2023/01/23 05:46:33;;;;;;;80.90;52.40;;;;;;;0.06;100.00;102371.81;5016807;28;20787;-75
2023/01/23 05:48:58;;;;;;;87.15;53.45;;;;;;;-0.20;100.00;102328.09;5014317;28;20036;-74
2023/01/23 05:51:30;;;;;;;82.50;51.22;;;;;;;0.11;100.00;102380.53;5014579;28;20032;-75
2023/01/23 05:53:56;;;;;;;95.82;50.60;;;;;;;0.13;100.00;102378.88;4986190;28;20029;-76
2023/01/23 05:56:21;;;;;;;87.28;53.13;;;;;;;0.06;100.00;102371.81;5016295;28;20131;-75
2023/01/23 05:58:46;;;;;;;88.13;54.05;;;;;;;0.13;100.00;102376.28;4997272;28;20936;-77
2023/01/23 06:01:12;;;;;;;88.50;51.92;;;;;;;0.05;100.00;102365.75;5019943;28;20082;-78
2023/01/23 06:03:37;;;;;;;82.75;55.28;;;;;;;0.08;100.00;102368.41;5017258;28;20482;-76
2023/01/23 06:06:03;;;;;;;86.85;54.33;;;;;;;0.08;100.00;102365.84;5000996;28;20060;-77
2023/01/23 06:08:28;;;;;;;83.00;52.85;;;;;;;0.05;100.00;102376.09;5019242;28;20123;-76
2023/01/23 06:10:57;;;;;;;96.97;52.67;;;;;;;-0.02;100.00;102381.94;5020583;28;20907;-76
2023/01/23 06:13:23;;;;;;;77.50;50.10;;;;;;;-0.04;100.00;102387.09;5015740;28;20033;-76
2023/01/23 06:15:49;;;;;;;88.28;48.72;;;;;;;-0.07;100.00;102381.81;5016660;28;20036;-76
2023/01/23 06:18:14;;;;;;;85.65;51.22;;;;;;;-0.21;100.00;102372.88;5004362;28;20048;-76
2023/01/23 06:20:40;;;;;;;77.55;47.60;;;;;;;-0.12;100.00;102388.59;5021208;28;20554;-77
2023/01/23 06:23:05;;;;;;;82.97;51.15;;;;;;;-0.03;100.00;102399.16;5018712;28;20037;-78
2023/01/23 06:25:30;;;;;;;74.88;47.55;;;;;;;-0.07;100.00;102387.00;5020252;28;20083;-76
2023/01/23 06:27:56;;;;;;;79.30;48.35;;;;;;;-0.02;100.00;102400.91;5020671;28;20839;-76
2023/01/23 06:30:21;;;;;;;88.95;52.05;;;;;;;0.00;100.00;102399.22;5001132;28;20029;-80
2023/01/23 06:32:47;;;;;;;81.75;51.05;;;;;;;0.00;100.00;102406.97;5014721;28;20039;-77
2023/01/23 06:35:12;;;;;;;83.13;51.45;;;;;;;-0.12;100.00;102383.44;5016378;28;20613;-76
2023/01/23 06:37:37;;;;;;;89.18;54.17;;;;;;;-0.15;100.00;102380.78;5015617;28;20555;-77
2023/01/23 06:40:03;;;;;;;94.00;54.80;;;;;;;0.00;100.00;102409.56;5013319;28;20896;-77
2023/01/23 06:42:29;;;;;;;91.88;51.25;;;;;;;-0.02;100.00;102406.06;5014903;28;20868;-77
2023/01/23 06:44:54;;;;;;;85.65;51.63;;;;;;;0.02;100.00;102407.03;5012479;28;20021;-77
2023/01/23 06:47:23;;;;;;;87.82;51.90;;;;;;;-0.10;100.00;102392.09;5014433;28;20073;-77
2023/01/23 06:49:48;;;;;;;77.97;50.78;;;;;;;0.03;100.00;102416.53;5015629;28;20126;-77
2023/01/23 06:52:14;;;;;;;83.72;53.38;;;;;;;0.06;100.00;102420.91;5013367;28;20029;-77
2023/01/23 06:54:39;;;;;;;86.03;50.05;;;;;;;0.00;100.00;102419.91;5021734;28;20036;-77
2023/01/23 06:57:04;;;;;;;75.60;48.25;;;;;;;0.03;100.00;102426.00;5022621;28;20076;-77
2023/01/23 06:59:31;;;;;;;84.75;50.47;;;;;;;0.08;100.00;102445.06;5024444;28;20481;-77
2023/01/23 07:01:56;;;;;;;76.20;51.53;;;;;;;0.09;100.00;102445.13;5023078;28;20035;-76
2023/01/23 07:04:22;;;;;;;80.30;49.95;;;;;;;0.13;100.00;102446.06;5023679;28;20033;-77
2023/01/23 07:06:47;;;;;;;81.93;50.53;;;;;;;0.15;100.00;102452.13;5023818;28;20060;-76
2023/01/23 07:09:12;;;;;;;89.28;48.58;;;;;;;0.07;100.00;102439.00;5023311;28;20045;-75
2023/01/23 07:11:38;;;;;;;91.32;55.13;;;;;;;0.11;100.00;102437.38;5023774;28;20901;-75
2023/01/23 07:14:04;;;;;;;79.43;53.22;;;;;;;-0.30;100.00;102367.44;5022855;28;20036;-75
2023/01/23 07:16:29;;;;;;;93.88;57.40;;;;;;;-0.09;100.00;102414.50;5016661;28;20905;-76
2023/01/23 07:18:57;;;;;;;87.43;55.50;;;;;;;0.14;100.00;102458.13;5024441;28;20034;-76
2023/01/23 07:21:23;;;;;;;84.03;52.58;;;;;;;0.14;100.00;102471.03;5026587;28;20090;-76
2023/01/23 07:23:49;;;;;;;85.32;51.67;;;;;;;0.11;100.00;102473.56;5025722;28;20037;-76
2023/01/23 07:26:15;;;;;;;77.88;49.53;;;;;;;0.06;100.00;102460.53;5016503;28;20040;-75
2023/01/23 07:28:41;;;;;;;76.55;47.88;;;;;;;0.15;100.00;102471.09;5024478;28;20044;-76
2023/01/23 07:31:06;;;;;;;73.18;49.67;;;;;;;0.11;100.00;102452.88;5032324;28;20033;-77
2023/01/23 07:33:32;;;;;;;72.43;46.40;;;;;;;0.07;100.00;102457.09;5028640;28;20163;-76
2023/01/23 07:35:57;;;;;;;68.35;45.63;;;;;;;0.16;100.00;102474.56;5012195;28;20037;-75
2023/01/23 07:38:22;;;;;;;70.30;47.35;;;;;;;0.04;100.00;102456.16;5015855;28;20969;-75
2023/01/23 07:40:51;;;;;;;77.10;48.30;;;;;;;0.13;100.00;102464.16;4993662;28;20033;-74
2023/01/23 07:43:16;;;;;;;67.60;45.67;;;;;;;-0.01;100.00;102435.38;4992156;28;20033;-74
2023/01/23 07:45:42;;;;;;;72.68;45.10;;;;;;;0.16;100.00;102461.66;5010008;28;20032;-74
2023/01/23 07:48:07;;;;;;;71.78;44.03;;;;;;;0.21;100.00;102471.25;4996643;28;20030;-75
2023/01/23 07:50:34;;;;;;;77.65;48.05;;;;;;;0.15;100.00;102460.75;5010290;28;20033;-74
2023/01/23 07:53:00;;;;;;;67.97;45.60;;;;;;;0.18;100.00;102459.97;5012268;28;20029;-74
2023/01/23 07:55:25;;;;;;;61.22;44.22;;;;;;;-0.40;100.00;102375.81;5009895;28;20934;-75
2023/01/23 07:57:51;;;;;;;62.83;44.97;;;;;;;0.27;100.00;102478.31;4994115;28;20033;-75
2023/01/23 08:00:17;;;;;;;68.30;45.38;;;;;;;0.22;100.00;102473.00;5016938;28;20029;-74
2023/01/23 08:02:42;;;;;;;69.63;43.20;;;;;;;-0.23;100.00;102420.13;5024275;28;20048;-75
2023/01/23 08:05:08;;;;;;;72.50;47.08;;;;;;;-0.32;100.00;102378.59;5022509;28;20029;-75
2023/01/23 08:07:33;;;;;;;81.40;49.92;;;;;;;0.25;100.00;102480.84;5025096;28;20068;-74
2023/01/23 08:09:59;;;;;;;66.20;44.97;;;;;;;0.25;100.00;102486.00;5021271;28;20021;-77
2023/01/23 08:12:24;;;;;;;70.97;45.38;;;;;;;0.30;100.00;102488.72;5016868;28;20056;-75
2023/01/23 08:14:49;;;;;;;69.18;43.10;;;;;;;0.34;100.00;102491.41;4974938;28;20032;-75
2023/01/23 08:17:15;;;;;;;76.00;47.67;;;;;;;0.12;100.00;102445.19;5008470;28;20038;-75
2023/01/23 08:19:40;;;;;;;68.45;47.10;;;;;;;0.33;100.00;102486.22;5003498;28;20345;-75
2023/01/23 08:22:06;;;;;;;78.45;49.65;;;;;;;0.40;100.00;102498.44;5005548;28;20037;-75
2023/01/23 08:24:31;;;;;;;72.18;45.13;;;;;;;0.36;100.00;102481.09;5008992;28;20163;-75
2023/01/23 08:26:56;;;;;;;70.03;45.78;;;;;;;0.39;100.00;102479.47;5006711;28;20716;-75
2023/01/23 08:29:22;;;;;;;72.65;46.42;;;;;;;-0.02;100.00;102416.41;5017375;28;20739;-75
2023/01/23 08:31:47;;;;;;;79.97;51.92;;;;;;;0.49;100.00;102481.44;5017130;28;20037;-75
2023/01/23 08:34:13;;;;;;;62.65;45.80;;;;;;;0.52;100.00;102485.81;5006295;28;20036;-75
2023/01/23 08:36:38;;;;;;;78.05;49.22;;;;;;;0.57;100.00;102486.81;5007181;28;20083;-76
2023/01/23 08:39:04;;;;;;;71.60;47.88;;;;;;;0.63;100.00;102491.25;4998308;28;20812;-75
2023/01/23 08:41:29;;;;;;;78.25;48.22;;;;;;;0.63;100.00;102491.25;5006300;28;20060;-75
2023/01/23 08:43:57;;;;;;;74.97;47.63;;;;;;;0.67;100.00;102493.06;5007026;28;20064;-75
2023/01/23 08:46:22;;;;;;;68.70;46.95;;;;;;;0.64;100.00;102487.84;5025422;28;20044;-75
2023/01/23 08:48:47;;;;;;;74.53;47.28;;;;;;;0.71;100.00;102490.56;5027887;28;20064;-76
2023/01/23 08:51:13;;;;;;;71.53;46.55;;;;;;;0.74;100.00;102495.84;5027979;28;20177;-75
2023/01/23 08:53:39;;;;;;;61.10;43.15;;;;;;;0.68;100.00;102479.28;5027365;28;20028;-75
2023/01/23 08:56:14;;;;;;;59.17;42.25;;;;;;;0.68;100.00;102480.16;5020101;28;20029;-75
2023/01/23 08:58:39;;;;;;;;;;;;;;;0.76;100.00;102493.28;5024517;28;20031;-75
2023/01/23 09:01:04;;;;;;;67.93;42.30;;;;;;;0.79;100.00;102494.22;5024845;28;20118;-76
2023/01/23 09:03:29;;;;;;;68.28;44.83;;;;;;;0.78;100.00;102497.66;5024599;28;20064;-75
2023/01/23 09:05:59;;;;;;;60.72;40.58;;;;;;;0.79;100.00;102499.41;5026902;28;20084;-75
2023/01/23 09:08:24;;;;;;;67.40;45.55;;;;;;;0.82;100.00;102502.06;5027085;28;20139;-75
2023/01/23 09:10:50;;;;;;;65.78;42.95;;;;;;;0.85;100.00;102512.47;5024661;28;20805;-75
2023/01/23 09:13:18;;;;;;;67.80;47.10;;;;;;;0.59;100.00;102464.44;5026765;28;20043;-74
2023/01/23 09:15:44;;;;;;;63.97;42.72;;;;;;;0.66;100.00;102474.09;5023074;28;20836;-74
2023/01/23 09:18:09;;;;;;;72.28;44.60;;;;;;;0.78;100.00;102495.06;5037884;28;20039;-74
2023/01/23 09:20:36;;;;;;;63.30;43.60;;;;;;;0.82;100.00;102504.66;5024216;28;20426;-74
2023/01/23 09:23:02;;;;;;;59.42;41.97;;;;;;;0.57;100.00;102458.38;5003842;28;20040;-74
2023/01/23 09:25:30;;;;;;;63.92;42.92;;;;;;;0.80;100.00;102505.47;5021398;28;20037;-75
2023/01/23 09:27:55;;;;;;;64.22;41.38;;;;;;;0.92;100.00;102535.06;5007100;28;20029;-75
2023/01/23 09:30:21;;;;;;;70.20;41.00;;;;;;;0.94;100.00;102533.41;5024713;28;20898;-74
2023/01/23 09:32:46;;;;;;;65.45;41.65;;;;;;;0.66;100.00;102480.97;5021120;28;20032;-74
2023/01/23 09:35:11;;;;;;;59.22;41.58;;;;;;;0.89;100.00;102537.59;5019823;28;20095;-73
2023/01/23 09:40:22;;;;;;;59.33;40.23;;;;;;;0.65;100.00;102495.63;5016768;28;20545;-74
2023/01/23 09:42:49;;;;;;;62.72;42.38;;;;;;;0.91;100.00;102538.50;5024120;28;20334;-74
2023/01/23 09:45:18;;;;;;;51.42;38.33;;;;;;;0.95;100.00;102537.72;4974946;28;20866;-74
2023/01/23 09:48:26;;;;;;;58.13;39.05;;;;;;;1.02;100.00;102547.38;5021307;28;20028;-74
2023/01/23 09:51:01;;;;;;;66.13;40.85;;;;;;;1.01;100.00;102540.44;5027720;28;20048;-74
2023/01/23 09:53:34;;;;;;;63.75;40.72;;;;;;;1.00;100.00;102536.13;5007652;28;20123;-74
2023/01/23 09:56:17;;;;;;;59.38;38.20;;;;;;;1.06;100.00;102539.69;5024193;28;20033;-74
2023/01/23 09:58:54;;;;;;;60.50;38.97;;;;;;;1.18;100.00;102551.22;5010780;28;20060;-73
2023/01/23 10:01:19;;;;;;;59.67;36.85;;;;;;;1.27;100.00;102550.53;5012175;28;20805;-74
2023/01/23 10:03:44;;;;;;;56.60;39.00;;;;;;;1.24;100.00;102534.94;5028517;28;20090;-75
2023/01/23 10:06:26;;;;;;;56.00;37.20;;;;;;;1.35;100.00;102541.25;5025543;28;20047;-75
2023/01/23 10:09:05;;;;;;;58.90;39.80;;;;;;;1.36;100.00;102541.25;5011654;28;20789;-74
2023/01/23 10:11:58;;;;;;;57.03;37.55;;;;;;;1.41;100.00;102538.78;5023590;28;20084;-74
2023/01/23 10:14:45;;;;;;;49.75;36.83;;;;;;;1.43;100.00;102531.91;5020919;28;20044;-74
2023/01/23 10:17:36;;;;;;;58.92;39.05;;;;;;;1.44;100.00;102534.53;5028036;28;20047;-73
2023/01/23 10:20:11;;;;;;;57.15;35.47;;;;;;;1.47;100.00;102528.53;5000346;28;20051;-74
2023/01/23 10:22:46;;;;;;;55.45;36.20;;;;;;;1.49;100.00;102522.53;5038579;28;20037;-74
2023/01/23 10:25:19;;;;;;;48.03;36.25;;;;;;;1.55;100.00;102524.41;4990482;28;20033;-74
2023/01/23 10:27:46;;;;;;;54.83;35.00;;;;;;;1.38;100.00;102498.16;5028174;28;20033;-74
2023/01/23 10:30:18;;;;;;;51.08;34.92;;;;;;;1.64;100.00;102516.81;5015816;28;20029;-73
2023/01/23 10:33:16;;;;;;;51.83;34.53;;;;;;;1.62;100.00;102508.16;5035141;28;20036;-74
2023/01/23 10:35:50;;;;;;;54.72;34.92;;;;;;;1.69;100.00;102501.38;5003186;28;20045;-74
2023/01/23 10:38:15;;;;;;;;;;;;;;;1.82;100.00;102511.13;5025687;28;20097;-73
2023/01/23 10:43:25;;;;;;;51.65;32.97;;;;;;;1.74;100.00;102486.78;5025427;28;20568;-75
2023/01/23 10:45:50;;;;;;;46.45;32.67;;;;;;;1.86;100.00;102493.06;5009820;28;20041;-73
2023/01/23 10:48:31;;;;;;;47.20;32.45;;;;;;;1.96;100.00;102512.28;5027876;28;20079;-73
2023/01/23 10:50:57;;;;;;;46.78;32.75;;;;;;;1.96;100.00;102494.13;5020150;28;20029;-73
2023/01/23 10:53:24;;;;;;;44.47;31.10;;;;;;;2.02;100.00;102509.78;5005122;28;20079;-74
2023/01/23 10:55:51;;;;;;;40.10;30.35;;;;;;;2.00;100.00;102495.91;5009665;28;20100;-73
2023/01/23 10:58:36;;;;;;;44.45;32.55;;;;;;;2.14;100.00;102515.19;5013060;28;20481;-73
2023/01/23 11:01:04;;;;;;;41.75;30.38;;;;;;;2.08;100.00;102519.41;5010763;28;20053;-73
2023/01/23 11:03:34;;;;;;;42.47;29.40;;;;;;;2.08;100.00;102503.84;5024157;28;20044;-76
2023/01/23 11:06:04;;;;;;;45.05;30.20;;;;;;;2.05;100.00;102497.78;4999720;28;20044;-73
2023/01/23 11:08:32;;;;;;;46.50;31.17;;;;;;;2.15;100.00;102516.06;5025446;28;20135;-74
2023/01/23 11:11:13;;;;;;;44.63;28.80;;;;;;;2.17;100.00;102524.75;4988370;28;20128;-74
2023/01/23 11:13:39;;;;;;;44.00;28.92;;;;;;;1.74;100.00;102458.28;5011227;28;20033;-75
2023/01/23 11:16:04;;;;;;;38.70;29.77;;;;;;;1.92;100.00;102503.56;5010165;28;20028;-73
2023/01/23 11:18:41;;;;;;;39.92;27.95;;;;;;;2.10;100.00;102515.97;5008446;28;21097;-73